Time;durP1;ratioP1;P1;durP2;ratioP2;P2;SDS_P1;SDS_P2;PMS_P1;PMS_P2;Temp;Humidity;BMP_temperature;BMP_pressure;BME280_temperature;BME280_humidity;BME280_pressure;Samples;Min_cycle;Max_cycle;Signal;HPM_P1;HPM_P2
2022/04/25 00:01:41;;;;;;;20.65;11.65;;;9.40;99.90;;;;;;5077811;28;20024;-58
2022/04/25 00:04:07;;;;;;;20.23;11.93;;;9.30;99.90;;;;;;5095835;28;20101;-62
2022/04/25 00:06:33;;;;;;;20.65;12.43;;;9.20;99.90;;;;;;5078354;28;20024;-61
2022/04/25 00:08:58;;;;;;;18.10;11.43;;;9.10;99.90;;;;;;5077705;28;20023;-60
2022/04/25 00:11:24;;;;;;;19.17;12.02;;;9.20;99.90;;;;;;5077409;28;20070;-62
2022/04/25 00:13:50;;;;;;;19.45;11.73;;;9.20;99.90;;;;;;5077839;28;20032;-62
2022/04/25 00:16:18;;;;;;;19.20;11.75;;;9.30;99.90;;;;;;5095920;28;20024;-62
2022/04/25 00:18:44;;;;;;;18.52;11.13;;;9.30;99.90;;;;;;5095488;28;20024;-62
2022/04/25 00:21:10;;;;;;;20.33;11.95;;;9.40;99.90;;;;;;5095658;28;20141;-62
2022/04/25 00:23:36;;;;;;;22.27;11.60;;;9.40;99.90;;;;;;5095434;28;20057;-62
2022/04/25 00:26:01;;;;;;;24.80;14.10;;;9.40;99.90;;;;;;5095334;28;20110;-63
2022/04/25 00:28:27;;;;;;;24.08;12.73;;;9.30;99.90;;;;;;5077368;28;20020;-62
2022/04/25 00:30:53;;;;;;;23.30;13.15;;;9.30;99.90;;;;;;5077513;28;20451;-63
2022/04/25 00:33:18;;;;;;;21.73;12.10;;;9.10;99.90;;;;;;5095277;28;20027;-63
2022/04/25 00:35:44;;;;;;;19.50;12.45;;;9.00;99.90;;;;;;5095491;28;20024;-63
2022/04/25 00:38:10;;;;;;;21.25;13.38;;;9.00;99.90;;;;;;5077239;28;20031;-62
2022/04/25 00:40:36;;;;;;;22.55;12.88;;;8.90;99.90;;;;;;5095200;28;20035;-61
2022/04/25 00:43:02;;;;;;;22.77;12.10;;;8.80;99.90;;;;;;5095187;28;20628;-63
2022/04/25 00:45:32;;;;;;;20.25;13.00;;;8.80;99.90;;;;;;5076880;28;20123;-61
2022/04/25 00:47:58;;;;;;;21.73;12.70;;;8.70;99.90;;;;;;5077046;28;20547;-61
2022/04/25 00:50:24;;;;;;;21.40;12.55;;;8.70;99.90;;;;;;5077737;28;20020;-61
2022/04/25 00:52:50;;;;;;;20.70;12.90;;;8.50;99.90;;;;;;5095027;28;20016;-62
2022/04/25 00:55:16;;;;;;;21.38;11.98;;;8.40;99.90;;;;;;5095169;28;20016;-63
2022/04/25 00:57:42;;;;;;;22.52;12.57;;;8.40;99.90;;;;;;5094976;28;20024;-63
2022/04/25 01:00:11;;;;;;;22.27;12.65;;;8.40;99.90;;;;;;5094798;28;20112;-63
2022/04/25 01:02:39;;;;;;;21.05;12.35;;;8.30;99.90;;;;;;5060713;28;20025;-63
2022/04/25 01:05:06;;;;;;;21.13;12.52;;;8.30;99.90;;;;;;5056714;28;20081;-63
2022/04/25 01:07:34;;;;;;;19.73;12.05;;;8.20;99.90;;;;;;5056430;28;20020;-63
2022/04/25 01:10:00;;;;;;;21.55;12.55;;;8.20;99.90;;;;;;5074402;28;20028;-61
2022/04/25 01:12:26;;;;;;;21.23;12.73;;;8.10;99.90;;;;;;5074527;28;20024;-63
2022/04/25 01:15:00;;;;;;;22.67;13.35;;;7.90;99.90;;;;;;5056303;28;20028;-63
2022/04/25 01:17:26;;;;;;;22.85;11.43;;;7.90;99.90;;;;;;5056287;28;20115;-63
2022/04/25 01:19:52;;;;;;;21.60;12.82;;;7.80;99.90;;;;;;5055965;28;20025;-63
2022/04/25 01:22:21;;;;;;;19.67;12.18;;;7.70;99.90;;;;;;5056403;28;20031;-62
2022/04/25 01:27:32;;;;;;;20.58;12.18;;;7.80;99.90;;;;;;5074299;28;20036;-62
2022/04/25 01:29:58;;;;;;;24.17;12.10;;;7.70;99.90;;;;;;5074336;28;20021;-63
2022/04/25 01:32:24;;;;;;;21.13;11.57;;;7.70;99.90;;;;;;5055777;28;20025;-63
2022/04/25 01:34:50;;;;;;;24.02;11.95;;;7.60;99.90;;;;;;5073949;28;20030;-62
2022/04/25 01:37:18;;;;;;;19.33;12.52;;;7.60;99.90;;;;;;5055834;28;20029;-60
2022/04/25 01:39:51;;;;;;;18.95;11.15;;;7.60;99.90;;;;;;5074168;28;20024;-63
2022/04/25 01:42:17;;;;;;;19.75;11.50;;;7.40;99.90;;;;;;5055769;28;20024;-63
2022/04/25 01:44:43;;;;;;;20.27;11.32;;;7.30;99.90;;;;;;5055578;28;20047;-63
2022/04/25 01:47:09;;;;;;;20.75;10.68;;;7.30;99.90;;;;;;5073607;28;20020;-63
2022/04/25 01:49:36;;;;;;;21.55;11.73;;;7.30;99.90;;;;;;5055540;28;20025;-63
2022/04/25 01:52:14;;;;;;;20.00;11.75;;;7.40;99.90;;;;;;5073718;28;20028;-63
2022/04/25 01:54:40;;;;;;;23.55;11.23;;;7.30;99.90;;;;;;5073851;28;20111;-63
2022/04/25 01:57:05;;;;;;;21.02;11.80;;;7.20;99.90;;;;;;5073852;28;20052;-63
2022/04/25 01:59:31;;;;;;;20.33;11.20;;;7.20;99.90;;;;;;5073607;28;20028;-63
2022/04/25 02:01:57;;;;;;;18.48;10.98;;;7.20;99.90;;;;;;5055901;28;20032;-63
2022/04/25 02:04:22;;;;;;;23.95;12.98;;;7.30;99.90;;;;;;5055273;28;20039;-62
2022/04/25 02:06:49;;;;;;;19.02;11.50;;;7.10;99.90;;;;;;5073392;28;20024;-61
2022/04/25 02:09:15;;;;;;;21.33;12.50;;;7.00;99.90;;;;;;5055501;28;20024;-61
2022/04/25 02:11:40;;;;;;;18.65;11.38;;;7.10;99.90;;;;;;5055227;28;20044;-59
2022/04/25 02:14:06;;;;;;;20.02;11.57;;;7.10;99.90;;;;;;5055276;28;20029;-61
2022/04/25 02:16:32;;;;;;;21.15;11.60;;;7.00;99.90;;;;;;5073285;28;20020;-58
2022/04/25 02:18:58;;;;;;;22.10;12.35;;;6.90;99.90;;;;;;5072009;28;20027;-59
2022/04/25 02:21:24;;;;;;;21.85;12.30;;;6.90;99.90;;;;;;5075691;28;20030;-62
2022/04/25 02:23:50;;;;;;;20.15;12.18;;;6.90;99.90;;;;;;5075343;28;20023;-62
2022/04/25 02:26:16;;;;;;;20.38;12.43;;;6.90;99.90;;;;;;5093304;28;20020;-62
2022/04/25 02:28:41;;;;;;;25.90;13.07;;;7.10;99.90;;;;;;5093214;28;20028;-62
2022/04/25 02:31:08;;;;;;;21.98;12.43;;;7.00;99.90;;;;;;5074457;28;20049;-61
2022/04/25 02:33:35;;;;;;;22.27;12.63;;;7.00;99.90;;;;;;5093421;28;20551;-62
2022/04/25 02:36:07;;;;;;;24.50;13.38;;;7.00;99.90;;;;;;5075099;28;20027;-62
2022/04/25 02:38:34;;;;;;;26.65;13.77;;;6.90;99.90;;;;;;5074946;28;20020;-62
2022/04/25 02:41:06;;;;;;;21.63;13.25;;;6.90;99.90;;;;;;5075273;28;20077;-62
2022/04/25 02:43:32;;;;;;;24.23;12.50;;;7.00;99.90;;;;;;5093266;28;20020;-61
2022/04/25 02:45:58;;;;;;;21.48;12.18;;;7.10;99.90;;;;;;5075089;28;20134;-63
2022/04/25 02:48:24;;;;;;;20.25;11.73;;;7.30;99.90;;;;;;5074808;28;20066;-62
2022/04/25 02:50:50;;;;;;;21.25;10.45;;;7.50;99.90;;;;;;5093090;28;20024;-61
2022/04/25 02:53:15;;;;;;;21.27;12.48;;;7.70;99.90;;;;;;5092946;28;20031;-60
2022/04/25 02:55:41;;;;;;;28.35;14.15;;;7.80;99.90;;;;;;5074878;28;20077;-60
2022/04/25 02:58:08;;;;;;;20.38;12.00;;;7.70;99.90;;;;;;5075038;28;20024;-62
2022/04/25 03:00:34;;;;;;;20.92;12.18;;;7.70;99.90;;;;;;5075498;28;20020;-61
2022/04/25 03:03:00;;;;;;;26.27;13.00;;;7.80;99.90;;;;;;5075123;28;20385;-63
2022/04/25 03:05:25;;;;;;;27.98;14.23;;;7.90;99.90;;;;;;5092725;28;20032;-62
2022/04/25 03:07:51;;;;;;;21.67;13.25;;;7.90;99.90;;;;;;5092863;28;20115;-63
2022/04/25 03:10:17;;;;;;;23.45;13.73;;;8.00;99.90;;;;;;5074873;28;20115;-61
2022/04/25 03:12:42;;;;;;;24.58;12.82;;;8.00;99.90;;;;;;5074520;28;20020;-62
2022/04/25 03:15:08;;;;;;;26.10;14.85;;;8.10;99.90;;;;;;5093024;28;20039;-63
2022/04/25 03:17:34;;;;;;;22.05;14.13;;;8.10;99.90;;;;;;5092806;28;20031;-62
2022/04/25 03:19:59;;;;;;;21.33;12.90;;;8.10;99.90;;;;;;5092902;28;20027;-63
2022/04/25 03:22:25;;;;;;;26.42;14.32;;;8.10;99.90;;;;;;5092770;28;20024;-63
2022/04/25 03:24:51;;;;;;;30.38;16.20;;;8.20;99.90;;;;;;5074453;28;20441;-63
2022/04/25 03:27:16;;;;;;;31.00;16.33;;;8.20;99.90;;;;;;5074456;28;20020;-63
2022/04/25 03:29:42;;;;;;;23.23;13.35;;;8.20;99.90;;;;;;5074774;28;20019;-60
2022/04/25 03:32:08;;;;;;;24.00;12.98;;;8.30;99.90;;;;;;5092569;28;20051;-63
2022/04/25 03:34:36;;;;;;;21.65;12.73;;;8.40;99.90;;;;;;5074554;28;20073;-63
2022/04/25 03:37:02;;;;;;;24.85;13.77;;;8.60;99.90;;;;;;5092645;28;20094;-62
2022/04/25 03:39:29;;;;;;;25.17;13.25;;;8.60;99.90;;;;;;5092857;28;20044;-63
2022/04/25 03:41:55;;;;;;;28.10;14.15;;;8.70;99.90;;;;;;5075342;28;20091;-62
2022/04/25 03:44:21;;;;;;;26.13;13.68;;;8.70;99.90;;;;;;5078119;28;20028;-63
2022/04/25 03:46:46;;;;;;;27.85;13.98;;;8.70;99.90;;;;;;5078020;28;20027;-63
2022/04/25 03:49:13;;;;;;;24.45;14.07;;;8.70;99.90;;;;;;5077937;28;20020;-63
2022/04/25 03:51:39;;;;;;;21.50;12.48;;;8.70;99.90;;;;;;5096170;28;20020;-62
2022/04/25 03:54:05;;;;;;;20.27;11.93;;;8.90;99.90;;;;;;5078296;28;20050;-63
2022/04/25 03:59:15;;;;;;;22.17;12.95;;;8.90;99.90;;;;;;5096576;28;20062;-63
2022/04/25 04:01:41;;;;;;;25.17;12.70;;;8.90;99.90;;;;;;5096201;28;20028;-63
2022/04/25 04:04:07;;;;;;;21.58;12.48;;;8.90;99.90;;;;;;5095560;28;20024;-62
2022/04/25 04:06:33;;;;;;;23.33;13.48;;;9.00;99.90;;;;;;5077471;28;20112;-63
2022/04/25 04:08:59;;;;;;;23.73;14.10;;;9.00;99.90;;;;;;5077449;28;20024;-61
2022/04/25 04:11:46;;;;;;;21.80;12.32;;;8.90;99.90;;;;;;5095497;28;20024;-63
2022/04/25 04:14:10;;;;;;;21.85;12.35;;;8.90;99.90;;;;;;5095386;28;20088;-63
2022/04/25 04:16:36;;;;;;;21.40;12.23;;;8.90;99.90;;;;;;5095732;28;20111;-62
2022/04/25 04:19:01;;;;;;;20.77;12.52;;;8.90;99.90;;;;;;5077864;28;20020;-63
2022/04/25 04:21:27;;;;;;;22.75;12.05;;;8.90;99.90;;;;;;5078036;28;20024;-61
2022/04/25 04:23:53;;;;;;;22.77;13.57;;;9.00;99.90;;;;;;5077234;28;20386;-62
2022/04/25 04:26:18;;;;;;;24.08;12.82;;;9.00;99.90;;;;;;5077236;28;20027;-63
2022/04/25 04:28:44;;;;;;;20.77;12.05;;;9.10;99.90;;;;;;5095572;28;20027;-63
2022/04/25 04:31:10;;;;;;;23.00;13.63;;;9.10;99.90;;;;;;5077205;28;20020;-63
2022/04/25 04:33:35;;;;;;;39.13;19.17;;;9.20;99.90;;;;;;5078818;28;20023;-63
2022/04/25 04:36:19;;;;;;;33.58;16.08;;;9.20;99.90;;;;;;5077925;28;20016;-63
2022/04/25 04:38:45;;;;;;;24.88;13.98;;;9.20;99.90;;;;;;5078564;28;20021;-63
2022/04/25 04:41:12;;;;;;;22.13;12.15;;;9.20;99.90;;;;;;5077681;28;20115;-63
2022/04/25 04:43:38;;;;;;;19.70;12.27;;;9.20;99.90;;;;;;5077368;28;20035;-62
2022/04/25 04:46:03;;;;;;;21.58;13.23;;;9.30;99.90;;;;;;5095576;28;20028;-62
2022/04/25 04:48:29;;;;;;;21.98;12.70;;;9.30;99.90;;;;;;5063401;28;20023;-61
2022/04/25 04:50:55;;;;;;;22.25;13.18;;;9.30;99.90;;;;;;5057232;28;20025;-62
2022/04/25 04:53:22;;;;;;;20.27;12.10;;;9.30;99.90;;;;;;5056604;28;20103;-62
2022/04/25 04:55:48;;;;;;;22.77;12.93;;;9.40;99.90;;;;;;5056830;28;20090;-63
2022/04/25 04:58:14;;;;;;;24.80;13.10;;;9.40;99.90;;;;;;5075162;28;20074;-61
2022/04/25 05:00:44;;;;;;;18.20;10.40;;;9.40;99.90;;;;;;5057268;28;20021;-62
2022/04/25 05:03:19;;;;;;;24.70;11.85;;;9.50;99.90;;;;;;5057322;28;20020;-61
2022/04/25 05:05:45;;;;;;;22.65;12.77;;;9.50;99.90;;;;;;5056899;28;20039;-62
2022/04/25 05:08:11;;;;;;;23.88;12.73;;;9.60;99.90;;;;;;5056974;28;20020;-62
2022/04/25 05:10:37;;;;;;;24.08;12.50;;;9.60;99.90;;;;;;5057209;28;20021;-63
2022/04/25 05:13:03;;;;;;;18.70;10.85;;;9.60;99.90;;;;;;5074799;28;20506;-63
2022/04/25 05:15:30;;;;;;;17.73;11.20;;;9.60;99.90;;;;;;5057271;28;20024;-63
2022/04/25 05:17:55;;;;;;;20.25;11.52;;;9.60;99.90;;;;;;5074884;28;20036;-60
2022/04/25 05:20:23;;;;;;;19.08;12.25;;;9.70;99.90;;;;;;5056691;28;20032;-61
2022/04/25 05:22:50;;;;;;;18.63;11.73;;;9.70;99.90;;;;;;5074382;28;20024;-61
2022/04/25 05:25:18;;;;;;;21.52;13.07;;;9.70;99.90;;;;;;5074019;28;20098;-60
2022/04/25 05:27:46;;;;;;;21.63;11.82;;;9.70;99.90;;;;;;5094695;28;20016;-59
2022/04/25 05:30:13;;;;;;;18.77;11.85;;;9.60;99.90;;;;;;5076750;28;20028;-61
2022/04/25 05:32:46;;;;;;;20.35;11.52;;;9.60;99.90;;;;;;5076651;28;20020;-60
2022/04/25 05:35:13;;;;;;;17.52;10.93;;;9.60;99.90;;;;;;5095174;28;20027;-61
2022/04/25 05:37:39;;;;;;;19.50;11.90;;;9.70;99.90;;;;;;5094488;28;20494;-61
2022/04/25 05:40:06;;;;;;;19.17;10.73;;;9.80;99.90;;;;;;5094501;28;20036;-61
2022/04/25 05:42:32;;;;;;;20.42;11.05;;;10.00;99.90;;;;;;5094307;28;20028;-62
2022/04/25 05:45:03;;;;;;;18.73;10.25;;;10.10;99.90;;;;;;5094383;28;20115;-60
2022/04/25 05:47:28;;;;;;;20.23;11.85;;;10.20;99.90;;;;;;5094324;28;20021;-60
2022/04/25 05:52:38;;;;;;;18.15;10.20;;;10.30;99.90;;;;;;5094262;28;20085;-61
2022/04/25 05:55:04;;;;;;;17.55;10.52;;;10.40;99.90;;;;;;5094487;28;20028;-61
2022/04/25 05:57:30;;;;;;;21.52;9.43;;;10.60;99.90;;;;;;5075868;28;20119;-61
2022/04/25 05:59:56;;;;;;;16.52;9.00;;;10.70;99.90;;;;;;5075914;28;20059;-62
2022/04/25 06:02:21;;;;;;;13.52;8.82;;;10.80;99.90;;;;;;5093780;28;20035;-62
2022/04/25 06:04:47;;;;;;;12.93;8.30;;;10.90;99.90;;;;;;5093808;28;20085;-61
2022/04/25 06:07:13;;;;;;;16.50;8.93;;;11.10;99.90;;;;;;5094296;28;20073;-62
2022/04/25 06:09:38;;;;;;;15.57;8.93;;;11.30;99.90;;;;;;5094171;28;20019;-62
2022/04/25 06:12:05;;;;;;;11.73;7.50;;;11.50;99.90;;;;;;5075885;28;20020;-61
2022/04/25 06:14:31;;;;;;;16.35;8.88;;;11.60;99.90;;;;;;5093799;28;20023;-62
2022/04/25 06:16:57;;;;;;;13.73;7.30;;;11.80;99.90;;;;;;5093906;28;20032;-62
2022/04/25 06:19:23;;;;;;;11.02;7.25;;;12.00;99.90;;;;;;5075964;28;20557;-62
2022/04/25 06:21:48;;;;;;;10.60;6.70;;;12.10;99.90;;;;;;5093501;28;20102;-61
2022/04/25 06:24:14;;;;;;;15.20;7.68;;;12.10;99.90;;;;;;5075580;28;20024;-62
2022/04/25 06:26:39;;;;;;;10.02;7.25;;;12.20;99.90;;;;;;5075552;28;20020;-62
2022/04/25 06:29:05;;;;;;;10.50;6.85;;;12.00;99.90;;;;;;5075521;28;20054;-61
2022/04/25 06:31:32;;;;;;;10.48;6.68;;;11.90;99.90;;;;;;5075385;28;20024;-60
2022/04/25 06:33:58;;;;;;;9.25;6.43;;;11.60;99.90;;;;;;5093618;28;20021;-62
2022/04/25 06:36:24;;;;;;;9.27;6.38;;;11.50;99.90;;;;;;5075718;28;20027;-61
2022/04/25 06:38:49;;;;;;;9.10;6.80;;;11.30;99.90;;;;;;5093529;28;20020;-62
2022/04/25 06:41:15;;;;;;;12.10;7.60;;;11.20;99.90;;;;;;5093343;28;20099;-62
2022/04/25 06:43:41;;;;;;;11.57;7.15;;;11.20;99.90;;;;;;5075305;28;20077;-62
2022/04/25 06:46:06;;;;;;;12.45;7.47;;;11.10;99.90;;;;;;5075303;28;20055;-62
2022/04/25 06:48:32;;;;;;;14.35;8.73;;;11.10;99.90;;;;;;5075666;28;20430;-62
2022/04/25 06:50:58;;;;;;;17.02;7.97;;;11.10;99.90;;;;;;5074969;28;20016;-60
2022/04/25 06:53:24;;;;;;;12.30;7.72;;;11.00;99.90;;;;;;5075575;28;20027;-62
2022/04/25 06:55:50;;;;;;;14.43;7.28;;;11.00;99.90;;;;;;5075264;28;20063;-62
2022/04/25 06:58:15;;;;;;;13.98;7.70;;;11.10;99.90;;;;;;5075094;28;20024;-61
2022/04/25 07:00:41;;;;;;;14.15;7.88;;;11.20;99.90;;;;;;5075042;28;20029;-62
2022/04/25 07:03:06;;;;;;;14.13;7.65;;;11.20;99.90;;;;;;5075130;28;20052;-61
2022/04/25 07:05:32;;;;;;;11.02;6.90;;;11.30;99.90;;;;;;5093015;28;20032;-62
2022/04/25 07:07:58;;;;;;;9.63;6.85;;;11.40;99.90;;;;;;5075515;28;20023;-62
2022/04/25 07:10:24;;;;;;;11.65;6.65;;;11.50;99.90;;;;;;5075812;28;20036;-63
2022/04/25 07:12:49;;;;;;;9.27;6.30;;;11.50;99.90;;;;;;5073568;28;20107;-62
2022/04/25 07:15:15;;;;;;;9.60;5.50;;;11.50;99.90;;;;;;5055129;28;20125;-62
2022/04/25 07:17:41;;;;;;;7.15;5.00;;;11.50;99.90;;;;;;5075055;28;20025;-64
2022/04/25 07:20:07;;;;;;;7.75;5.47;;;11.60;99.90;;;;;;5063744;28;20047;-61
2022/04/25 07:30:45;;;;;;;8.27;5.70;;;11.60;99.90;;;;;;5094256;28;20031;-62
2022/04/25 07:33:11;;;;;;;9.73;5.85;;;11.40;99.90;;;;;;5097231;28;20013;-62
2022/04/25 07:35:39;;;;;;;7.85;5.65;;;11.30;99.90;;;;;;5079778;28;20031;-62
2022/04/25 07:38:05;;;;;;;8.45;5.68;;;11.40;99.90;;;;;;5079508;28;20024;-62
2022/04/25 07:40:31;;;;;;;11.50;5.95;;;11.40;99.90;;;;;;5078448;28;20119;-61
2022/04/25 07:42:57;;;;;;;9.18;5.30;;;11.40;99.90;;;;;;5078265;28;20169;-61
2022/04/25 07:45:23;;;;;;;6.45;4.80;;;11.40;99.90;;;;;;5058258;28;20074;-61
2022/04/25 07:47:48;;;;;;;7.45;5.07;;;11.40;99.90;;;;;;5057909;28;20506;-62
2022/04/25 07:50:16;;;;;;;8.65;5.45;;;11.30;99.90;;;;;;5076382;28;20024;-61
2022/04/25 07:52:42;;;;;;;9.77;5.78;;;11.30;99.90;;;;;;5076153;28;20016;-62
2022/04/25 07:55:08;;;;;;;10.10;5.68;;;11.20;99.90;;;;;;5058669;28;20081;-61
2022/04/25 07:57:35;;;;;;;11.25;5.88;;;11.40;99.90;;;;;;5058566;28;20032;-59
2022/04/25 08:00:05;;;;;;;11.55;6.03;;;11.40;99.90;;;;;;5059117;28;20051;-59
2022/04/25 08:02:31;;;;;;;10.93;6.22;;;11.50;99.90;;;;;;5076016;28;20035;-61
2022/04/25 08:04:57;;;;;;;11.27;6.35;;;11.60;99.90;;;;;;5058226;28;20028;-62
2022/04/25 08:07:23;;;;;;;10.98;6.30;;;11.60;99.90;;;;;;5087583;28;20112;-60
2022/04/25 08:09:49;;;;;;;14.10;6.13;;;11.70;99.90;;;;;;5078122;28;20024;-62
2022/04/25 08:18:04;;;;;;;11.32;6.38;;;12.00;99.90;;;;;;5084610;28;20031;-67
2022/04/25 08:20:35;;;;;;;10.85;6.28;;;12.10;99.90;;;;;;5087186;28;20024;-68
2022/04/25 08:23:03;;;;;;;8.65;6.22;;;12.20;99.90;;;;;;5075610;28;20031;-68
2022/04/25 08:25:31;;;;;;;9.48;6.25;;;12.40;99.90;;;;;;5078220;28;20067;-69
2022/04/25 08:27:58;;;;;;;10.60;5.82;;;12.60;99.90;;;;;;5084205;28;20032;-69
2022/04/25 08:30:25;;;;;;;8.63;5.35;;;12.70;99.90;;;;;;5073865;28;20028;-68
2022/04/25 08:32:51;;;;;;;8.75;5.70;;;12.90;99.90;;;;;;5074667;28;20023;-68
2022/04/25 08:35:17;;;;;;;8.48;6.45;;;12.90;99.90;;;;;;5073901;28;20032;-68
2022/04/25 08:37:43;;;;;;;10.90;6.35;;;12.80;99.90;;;;;;5087085;28;20030;-70
2022/04/25 08:40:10;;;;;;;10.65;6.15;;;12.80;99.90;;;;;;5078020;28;20115;-70
2022/04/25 08:42:35;;;;;;;10.38;6.20;;;12.90;99.90;;;;;;5059418;28;20028;-69
2022/04/25 08:45:05;;;;;;;7.47;5.40;;;12.90;99.90;;;;;;5075463;28;20390;-67
2022/04/25 08:47:53;;;;;;;10.38;6.38;;;12.90;99.90;;;;;;5091931;28;20464;-67
2022/04/25 08:50:19;;;;;;;12.18;5.95;;;12.80;99.90;;;;;;5075651;28;20546;-67
2022/04/25 08:52:46;;;;;;;9.57;5.85;;;12.80;99.90;;;;;;5074137;28;20020;-64
2022/04/25 08:55:14;;;;;;;11.10;6.15;;;12.70;99.90;;;;;;5074188;28;20028;-63
2022/04/25 08:57:42;;;;;;;11.88;5.57;;;12.70;99.90;;;;;;5094120;28;20513;-64
2022/04/25 09:00:08;;;;;;;8.07;5.47;;;12.70;99.90;;;;;;5076333;28;20032;-63
2022/04/25 09:02:34;;;;;;;9.93;6.47;;;12.80;99.90;;;;;;5084792;28;20028;-64
2022/04/25 09:05:01;;;;;;;14.98;6.75;;;12.90;99.90;;;;;;5074859;28;20052;-65
2022/04/25 09:07:27;;;;;;;12.15;6.60;;;12.90;99.90;;;;;;5058247;28;20025;-67
2022/04/25 09:09:54;;;;;;;10.48;6.38;;;12.90;99.90;;;;;;5095091;28;20031;-68
2022/04/25 09:12:21;;;;;;;10.20;5.80;;;12.90;99.90;;;;;;5094897;28;20027;-66
2022/04/25 09:14:47;;;;;;;12.02;6.88;;;12.90;99.90;;;;;;5076823;28;20024;-65
2022/04/25 09:17:12;;;;;;;8.93;6.20;;;12.90;99.90;;;;;;5085598;28;20028;-66
2022/04/25 09:19:39;;;;;;;10.05;5.82;;;12.90;99.90;;;;;;5077826;28;20028;-64
2022/04/25 09:22:06;;;;;;;9.55;6.22;;;13.10;99.90;;;;;;5088825;28;20545;-65
2022/04/25 09:24:34;;;;;;;13.07;6.47;;;13.20;99.90;;;;;;5065577;28;20090;-65
2022/04/25 09:27:18;;;;;;;9.77;6.10;;;13.20;99.90;;;;;;5083558;28;20074;-65
2022/04/25 09:29:48;;;;;;;10.73;6.30;;;13.20;99.90;;;;;;5074895;28;20025;-66
2022/04/25 09:32:17;;;;;;;16.40;6.78;;;13.40;99.90;;;;;;5072969;28;20021;-65
2022/04/25 09:35:02;;;;;;;12.55;6.80;;;13.50;99.90;;;;;;5065255;28;20043;-65
2022/04/25 09:37:47;;;;;;;11.23;6.70;;;13.60;99.90;;;;;;5057856;28;20024;-67
2022/04/25 09:40:52;;;;;;;12.88;6.60;;;13.60;99.90;;;;;;5073786;28;20395;-66
2022/04/25 09:43:18;;;;;;;12.55;6.75;;;13.60;99.90;;;;;;5056727;28;20035;-66
2022/04/25 09:45:44;;;;;;;13.52;5.97;;;13.70;99.90;;;;;;5056420;28;20395;-66
2022/04/25 09:48:15;;;;;;;12.38;6.22;;;13.90;99.90;;;;;;5074034;28;20017;-66
2022/04/25 09:50:42;;;;;;;;;;;14.00;99.90;;;;;;5074439;28;20025;-66
2022/04/25 09:53:09;;;;;;;10.13;5.80;;;14.30;99.90;;;;;;5074478;28;19905;-66
2022/04/25 09:55:37;;;;;;;9.85;5.65;;;14.60;99.90;;;;;;5084860;28;20051;-65
2022/04/25 09:58:20;;;;;;;8.23;5.22;;;14.60;99.90;;;;;;5076569;28;20028;-64
2022/04/25 10:00:47;;;;;;;8.52;5.15;;;14.60;99.90;;;;;;5094270;28;20043;-65
2022/04/25 10:03:16;;;;;;;8.95;5.03;;;14.80;99.90;;;;;;5075034;28;20036;-66
2022/04/25 10:05:46;;;;;;;8.02;5.60;;;15.10;99.90;;;;;;5078980;28;20047;-64
2022/04/25 10:08:14;;;;;;;7.38;5.30;;;15.20;99.90;;;;;;5055669;28;20487;-67
2022/04/25 10:10:47;;;;;;;8.63;5.15;;;15.10;99.90;;;;;;5055664;28;20109;-65
2022/04/25 10:13:14;;;;;;;7.65;5.80;;;14.80;99.90;;;;;;5055811;28;20122;-64
2022/04/25 10:15:41;;;;;;;9.23;6.15;;;15.00;99.90;;;;;;5073149;28;20360;-67
2022/04/25 10:18:09;;;;;;;9.95;5.68;;;15.20;99.90;;;;;;5067157;28;20025;-64
2022/04/25 10:20:38;;;;;;;9.65;5.85;;;15.70;99.90;;;;;;5063646;28;20024;-67
2022/04/25 10:23:06;;;;;;;9.27;5.18;;;16.40;99.90;;;;;;5084080;28;20032;-67
2022/04/25 10:25:32;;;;;;;5.82;5.03;;;16.90;99.90;;;;;;5055704;28;20020;-66
2022/04/25 10:28:01;;;;;;;8.15;5.40;;;17.40;99.90;;;;;;5074250;28;20016;-65
2022/04/25 10:30:33;;;;;;;8.60;5.22;;;17.30;99.90;;;;;;5093610;28;20028;-66
2022/04/25 10:33:49;;;;;;;5.65;5.03;;;17.60;99.90;;;;;;5075663;28;20111;-65
2022/04/25 10:36:36;;;;;;;7.07;4.68;;;17.60;99.90;;;;;;4995224;28;20022;-65
2022/04/25 10:39:19;;;;;;;7.70;5.30;;;17.80;99.90;;;;;;5075668;28;20031;-66
2022/04/25 10:44:47;;;;;;;8.98;5.60;;;16.70;99.90;;;;;;5093667;28;20035;-65
2022/04/25 10:47:18;;;;;;;7.80;5.70;;;16.70;99.90;;;;;;5093747;28;20024;-66
2022/04/25 10:50:02;;;;;;;8.02;5.82;;;16.50;99.90;;;;;;5093635;28;20020;-67
2022/04/25 10:52:37;;;;;;;5.93;4.78;;;16.20;99.90;;;;;;5093031;28;20024;-69
2022/04/25 10:55:23;;;;;;;10.63;5.55;;;16.60;99.90;;;;;;5075881;28;20060;-68
2022/04/25 10:58:04;;;;;;;7.18;4.85;;;16.60;99.90;;;;;;5076285;28;20020;-67
2022/04/25 11:00:39;;;;;;;8.30;5.13;;;16.80;99.90;;;;;;5075476;28;20035;-65
2022/04/25 11:03:25;;;;;;;7.03;5.63;;;17.00;99.90;;;;;;5075411;28;20115;-66
2022/04/25 11:05:59;;;;;;;6.18;3.90;;;17.30;99.90;;;;;;5093130;28;20087;-68
2022/04/25 11:08:36;;;;;;;8.30;5.15;;;17.30;99.90;;;;;;5093460;28;20027;-66
2022/04/25 11:11:09;;;;;;;6.85;4.85;;;17.20;99.90;;;;;;5075058;28;20106;-67
2022/04/25 11:14:01;;;;;;;6.65;4.57;;;17.10;99.90;;;;;;5067829;28;20020;-67
2022/04/25 11:16:28;;;;;;;9.40;6.05;;;17.10;99.90;;;;;;5073799;28;20510;-69
2022/04/25 11:19:08;;;;;;;6.95;4.65;;;17.40;99.90;;;;;;5087395;28;20105;-63
2022/04/25 11:21:34;;;;;;;9.68;5.20;;;17.50;99.90;;;;;;5065437;28;20028;-64
2022/04/25 11:24:01;;;;;;;6.53;5.15;;;17.90;99.90;;;;;;5092833;28;20029;-65
2022/04/25 11:26:28;;;;;;;5.60;4.53;;;17.90;99.90;;;;;;5068951;28;20112;-65
2022/04/25 11:28:54;;;;;;;13.73;4.53;;;17.80;99.90;;;;;;5055347;28;20090;-65
2022/04/25 11:31:26;;;;;;;7.10;4.82;;;17.70;99.90;;;;;;5072668;28;20025;-65
2022/04/25 11:34:02;;;;;;;6.35;4.22;;;17.80;99.90;;;;;;5055232;28;20020;-65
2022/04/25 11:36:29;;;;;;;7.28;4.85;;;17.80;99.90;;;;;;5054202;28;20031;-65
2022/04/25 11:41:42;;;;;;;6.78;5.07;;;18.10;99.90;;;;;;5072881;28;20028;-65
2022/04/25 11:44:08;;;;;;;8.15;5.43;;;18.10;99.90;;;;;;5072434;28;20019;-65
2022/04/25 11:46:35;;;;;;;8.52;5.05;;;17.90;99.90;;;;;;5072579;28;20024;-65
2022/04/25 11:49:02;;;;;;;9.07;5.10;;;17.70;99.90;;;;;;5080988;28;20036;-65
2022/04/25 11:51:31;;;;;;;6.10;5.13;;;17.90;99.90;;;;;;5085120;28;20017;-65
2022/04/25 11:53:58;;;;;;;7.22;5.63;;;17.90;99.90;;;;;;5072596;28;20486;-65
2022/04/25 11:56:25;;;;;;;6.93;4.53;;;17.60;99.90;;;;;;5064203;28;20024;-65
2022/04/25 11:58:52;;;;;;;7.93;5.28;;;17.70;99.90;;;;;;5092712;28;20103;-65
2022/04/25 12:01:37;;;;;;;8.15;5.88;;;17.70;99.90;;;;;;5074579;28;20025;-65
2022/04/25 12:04:18;;;;;;;8.55;4.70;;;17.40;99.90;;;;;;5094778;28;20056;-65
2022/04/25 12:06:53;;;;;;;;;;;17.60;99.90;;;;;;5096635;28;20028;-65
2022/04/25 12:17:52;;;;;;;8.35;5.88;;;18.60;99.90;;;;;;5089066;28;20054;-65
2022/04/25 12:20:27;;;;;;;6.80;4.93;;;18.60;99.90;;;;;;5077958;28;20447;-65
2022/04/25 12:22:55;;;;;;;4.95;3.92;;;18.40;99.90;;;;;;5095878;28;20024;-64
2022/04/25 12:25:27;;;;;;;5.97;3.72;;;18.00;99.90;;;;;;5077747;28;20035;-64
2022/04/25 12:28:17;;;;;;;;;;;17.20;99.90;;;;;;5078600;28;20024;-64
2022/04/25 12:30:58;;;;;;;8.18;4.30;;;16.40;99.90;;;;;;5078087;28;19908;-64
2022/04/25 12:33:32;;;;;;;4.18;3.60;;;16.00;99.90;;;;;;5077977;28;20020;-64
2022/04/25 12:36:20;;;;;;;4.38;3.53;;;15.80;99.90;;;;;;5095701;28;20032;-64
2022/04/25 12:38:58;;;;;;;4.60;3.22;;;15.50;99.90;;;;;;5095673;28;20111;-64
2022/04/25 12:41:25;;;;;;;4.55;3.35;;;15.40;99.90;;;;;;5095365;28;20039;-64
2022/04/25 12:43:53;;;;;;;4.78;3.38;;;15.50;99.90;;;;;;5094334;28;20058;-64
2022/04/25 12:46:40;;;;;;;4.32;3.35;;;15.50;99.90;;;;;;5066233;28;20028;-65
2022/04/25 12:49:11;;;;;;;5.85;4.50;;;15.30;99.90;;;;;;5077277;28;20103;-65
2022/04/25 12:54:58;;;;;;;6.60;4.95;;;14.90;99.90;;;;;;5095712;28;20109;-64
2022/04/25 12:57:26;;;;;;;6.15;4.60;;;14.80;99.90;;;;;;5095231;28;20103;-65
2022/04/25 12:59:52;;;;;;;7.40;4.78;;;14.80;99.90;;;;;;5095211;28;20020;-64
2022/04/25 13:02:20;;;;;;;6.53;5.03;;;14.80;99.90;;;;;;5076938;28;20073;-64
2022/04/25 13:04:55;;;;;;;7.30;4.88;;;14.70;99.90;;;;;;5077172;28;20035;-63
2022/04/25 13:07:25;;;;;;;12.85;7.28;;;14.80;99.90;;;;;;5095018;28;20052;-63
2022/04/25 13:09:56;;;;;;;8.93;5.50;;;14.80;99.90;;;;;;5095093;28;20486;-63
2022/04/25 13:12:23;;;;;;;7.43;5.15;;;14.90;99.90;;;;;;5076728;28;20020;-63
2022/04/25 13:14:49;;;;;;;9.02;4.78;;;14.90;99.90;;;;;;5076264;28;20027;-63
2022/04/25 13:17:15;;;;;;;6.18;4.68;;;15.00;99.90;;;;;;5077052;28;20372;-65
2022/04/25 13:19:42;;;;;;;8.48;4.82;;;15.20;99.90;;;;;;5074529;28;20027;-64
2022/04/25 13:22:08;;;;;;;6.57;4.40;;;15.40;99.90;;;;;;5056841;28;20062;-63
2022/04/25 13:24:35;;;;;;;7.55;4.68;;;15.40;99.90;;;;;;5074428;28;20056;-64
2022/04/25 13:27:02;;;;;;;6.07;4.03;;;15.60;99.90;;;;;;5056668;28;20078;-63